sensor_id;sensor_type;location;lat;lon;timestamp;temperature;humidity
22678;DHT22;26259;50.214;18.620;2023-04-03T00:01:29;2.00;99.90
22678;DHT22;26259;50.214;18.620;2023-04-03T00:03:55;2.10;99.90
22678;DHT22;26259;50.214;18.620;2023-04-03T00:06:22;2.10;99.90
22678;DHT22;26259;50.214;18.620;2023-04-03T00:08:48;2.00;99.90
22678;DHT22;26259;50.214;18.620;2023-04-03T00:11:14;2.10;99.90
22678;DHT22;26259;50.214;18.620;2023-04-03T00:13:40;2.00;99.90
22678;DHT22;26259;50.214;18.620;2023-04-03T00:16:08;2.10;99.90
22678;DHT22;26259;50.214;18.620;2023-04-03T00:18:33;2.10;99.90
22678;DHT22;26259;50.214;18.620;2023-04-03T00:20:59;2.10;99.90
22678;DHT22;26259;50.214;18.620;2023-04-03T00:23:25;2.10;99.90
22678;DHT22;26259;50.214;18.620;2023-04-03T00:25:51;2.10;99.90
22678;DHT22;26259;50.214;18.620;2023-04-03T00:28:16;2.10;99.90
22678;DHT22;26259;50.214;18.620;2023-04-03T00:30:42;2.10;99.90
22678;DHT22;26259;50.214;18.620;2023-04-03T00:33:12;2.10;99.90
22678;DHT22;26259;50.214;18.620;2023-04-03T00:35:38;2.10;99.90
22678;DHT22;26259;50.214;18.620;2023-04-03T00:38:04;2.10;99.90
22678;DHT22;26259;50.214;18.620;2023-04-03T00:40:37;2.10;99.90
22678;DHT22;26259;50.214;18.620;2023-04-03T00:43:12;2.10;99.90
22678;DHT22;26259;50.214;18.620;2023-04-03T00:45:41;2.10;99.90
22678;DHT22;26259;50.214;18.620;2023-04-03T00:48:08;2.10;99.90
22678;DHT22;26259;50.214;18.620;2023-04-03T00:50:37;2.10;99.90
22678;DHT22;26259;50.214;18.620;2023-04-03T00:53:04;2.10;99.90
22678;DHT22;26259;50.214;18.620;2023-04-03T00:55:31;2.10;99.90
22678;DHT22;26259;50.214;18.620;2023-04-03T00:57:58;2.10;99.90
22678;DHT22;26259;50.214;18.620;2023-04-03T01:00:26;2.20;99.90
22678;DHT22;26259;50.214;18.620;2023-04-03T01:02:52;2.10;99.90
22678;DHT22;26259;50.214;18.620;2023-04-03T01:05:19;2.20;99.90
22678;DHT22;26259;50.214;18.620;2023-04-03T01:07:46;2.10;99.90
22678;DHT22;26259;50.214;18.620;2023-04-03T01:10:14;2.10;99.90
22678;DHT22;26259;50.214;18.620;2023-04-03T01:12:44;2.10;99.90
22678;DHT22;26259;50.214;18.620;2023-04-03T01:15:17;2.10;99.90
22678;DHT22;26259;50.214;18.620;2023-04-03T01:25:33;2.20;99.90
22678;DHT22;26259;50.214;18.620;2023-04-03T01:27:59;2.10;99.90
22678;DHT22;26259;50.214;18.620;2023-04-03T01:30:31;2.10;99.90
22678;DHT22;26259;50.214;18.620;2023-04-03T01:32:57;2.10;99.90
22678;DHT22;26259;50.214;18.620;2023-04-03T01:35:23;2.10;99.90
22678;DHT22;26259;50.214;18.620;2023-04-03T01:37:49;2.10;99.90
22678;DHT22;26259;50.214;18.620;2023-04-03T01:40:14;2.10;99.90
22678;DHT22;26259;50.214;18.620;2023-04-03T01:42:40;2.10;99.90
22678;DHT22;26259;50.214;18.620;2023-04-03T01:45:06;2.10;99.90
22678;DHT22;26259;50.214;18.620;2023-04-03T01:47:32;2.10;99.90
22678;DHT22;26259;50.214;18.620;2023-04-03T01:49:57;2.00;99.90
22678;DHT22;26259;50.214;18.620;2023-04-03T01:52:23;2.00;99.90
22678;DHT22;26259;50.214;18.620;2023-04-03T01:54:48;2.00;99.90
22678;DHT22;26259;50.214;18.620;2023-04-03T01:57:14;2.00;99.90
22678;DHT22;26259;50.214;18.620;2023-04-03T01:59:40;2.00;99.90
22678;DHT22;26259;50.214;18.620;2023-04-03T02:02:06;2.00;99.90
22678;DHT22;26259;50.214;18.620;2023-04-03T02:04:32;2.00;99.90
22678;DHT22;26259;50.214;18.620;2023-04-03T02:06:57;2.00;99.90
22678;DHT22;26259;50.214;18.620;2023-04-03T02:09:23;2.00;99.90
22678;DHT22;26259;50.214;18.620;2023-04-03T02:11:48;2.00;99.90
22678;DHT22;26259;50.214;18.620;2023-04-03T02:14:14;2.00;99.90
22678;DHT22;26259;50.214;18.620;2023-04-03T02:16:40;1.90;99.90
22678;DHT22;26259;50.214;18.620;2023-04-03T02:19:06;1.90;99.90
22678;DHT22;26259;50.214;18.620;2023-04-03T02:21:31;2.00;99.90
22678;DHT22;26259;50.214;18.620;2023-04-03T02:23:57;1.90;99.90
22678;DHT22;26259;50.214;18.620;2023-04-03T02:26:23;1.90;99.90
22678;DHT22;26259;50.214;18.620;2023-04-03T02:28:48;1.90;99.90
22678;DHT22;26259;50.214;18.620;2023-04-03T02:31:14;1.90;99.90
22678;DHT22;26259;50.214;18.620;2023-04-03T02:33:40;1.90;99.90
22678;DHT22;26259;50.214;18.620;2023-04-03T02:36:07;1.80;99.90
22678;DHT22;26259;50.214;18.620;2023-04-03T02:38:33;1.80;99.90
22678;DHT22;26259;50.214;18.620;2023-04-03T02:41:03;1.80;99.90
22678;DHT22;26259;50.214;18.620;2023-04-03T02:43:29;1.80;99.90
22678;DHT22;26259;50.214;18.620;2023-04-03T02:45:55;1.70;99.90
22678;DHT22;26259;50.214;18.620;2023-04-03T02:48:21;1.60;99.90
22678;DHT22;26259;50.214;18.620;2023-04-03T02:50:47;1.60;99.90
22678;DHT22;26259;50.214;18.620;2023-04-03T02:53:13;1.60;99.90
22678;DHT22;26259;50.214;18.620;2023-04-03T02:55:38;1.50;99.90
22678;DHT22;26259;50.214;18.620;2023-04-03T02:58:04;1.40;99.90
22678;DHT22;26259;50.214;18.620;2023-04-03T03:00:30;1.30;99.90
22678;DHT22;26259;50.214;18.620;2023-04-03T03:02:56;1.30;99.90
22678;DHT22;26259;50.214;18.620;2023-04-03T03:05:21;1.20;99.90
22678;DHT22;26259;50.214;18.620;2023-04-03T03:07:47;1.00;99.90
22678;DHT22;26259;50.214;18.620;2023-04-03T03:10:13;1.00;99.90
22678;DHT22;26259;50.214;18.620;2023-04-03T03:12:39;0.90;99.90
22678;DHT22;26259;50.214;18.620;2023-04-03T03:15:06;0.80;99.90
22678;DHT22;26259;50.214;18.620;2023-04-03T03:17:32;0.70;99.90
22678;DHT22;26259;50.214;18.620;2023-04-03T03:19:58;0.70;99.90
22678;DHT22;26259;50.214;18.620;2023-04-03T03:22:23;0.60;99.90
22678;DHT22;26259;50.214;18.620;2023-04-03T03:24:49;0.50;99.90
22678;DHT22;26259;50.214;18.620;2023-04-03T03:27:15;0.50;99.90
22678;DHT22;26259;50.214;18.620;2023-04-03T03:29:41;0.40;99.90
22678;DHT22;26259;50.214;18.620;2023-04-03T03:32:07;0.40;99.90
22678;DHT22;26259;50.214;18.620;2023-04-03T03:34:33;0.30;99.90
22678;DHT22;26259;50.214;18.620;2023-04-03T03:36:59;0.20;99.90
22678;DHT22;26259;50.214;18.620;2023-04-03T03:39:24;0.20;99.90
22678;DHT22;26259;50.214;18.620;2023-04-03T03:41:50;0.20;99.90
22678;DHT22;26259;50.214;18.620;2023-04-03T03:44:16;0.20;99.90
22678;DHT22;26259;50.214;18.620;2023-04-03T03:46:42;0.20;99.90
22678;DHT22;26259;50.214;18.620;2023-04-03T03:49:07;0.10;99.90
22678;DHT22;26259;50.214;18.620;2023-04-03T03:51:33;0.10;99.90
22678;DHT22;26259;50.214;18.620;2023-04-03T03:53:58;0.00;99.90
22678;DHT22;26259;50.214;18.620;2023-04-03T03:56:24;0.10;99.90
22678;DHT22;26259;50.214;18.620;2023-04-03T03:58:50;0.00;99.90
22678;DHT22;26259;50.214;18.620;2023-04-03T04:01:16;0.00;99.90
22678;DHT22;26259;50.214;18.620;2023-04-03T04:03:42;0.00;99.90
22678;DHT22;26259;50.214;18.620;2023-04-03T04:06:08;-0.10;99.90
22678;DHT22;26259;50.214;18.620;2023-04-03T04:08:33;-0.10;99.90
22678;DHT22;26259;50.214;18.620;2023-04-03T04:10:59;-0.10;99.90
22678;DHT22;26259;50.214;18.620;2023-04-03T04:13:25;-0.10;99.90
22678;DHT22;26259;50.214;18.620;2023-04-03T04:15:50;-0.20;99.90
22678;DHT22;26259;50.214;18.620;2023-04-03T04:18:16;-0.10;99.90
22678;DHT22;26259;50.214;18.620;2023-04-03T04:20:45;-0.20;99.90
22678;DHT22;26259;50.214;18.620;2023-04-03T04:23:10;-0.10;99.90
22678;DHT22;26259;50.214;18.620;2023-04-03T04:25:36;-0.20;99.90
22678;DHT22;26259;50.214;18.620;2023-04-03T04:28:02;-0.20;99.90
22678;DHT22;26259;50.214;18.620;2023-04-03T04:30:27;-0.30;99.90
22678;DHT22;26259;50.214;18.620;2023-04-03T04:32:53;-0.30;99.90
22678;DHT22;26259;50.214;18.620;2023-04-03T04:35:18;-0.30;99.90
22678;DHT22;26259;50.214;18.620;2023-04-03T04:37:44;-0.30;99.90
22678;DHT22;26259;50.214;18.620;2023-04-03T04:40:10;-0.30;99.90
22678;DHT22;26259;50.214;18.620;2023-04-03T04:42:36;-0.30;99.90
22678;DHT22;26259;50.214;18.620;2023-04-03T04:45:01;-0.30;99.90
22678;DHT22;26259;50.214;18.620;2023-04-03T04:47:28;-0.30;99.90
22678;DHT22;26259;50.214;18.620;2023-04-03T04:49:55;-0.30;99.90
22678;DHT22;26259;50.214;18.620;2023-04-03T04:52:20;-0.30;99.90
22678;DHT22;26259;50.214;18.620;2023-04-03T04:54:46;-0.30;99.90
22678;DHT22;26259;50.214;18.620;2023-04-03T04:57:11;-0.30;99.90
22678;DHT22;26259;50.214;18.620;2023-04-03T04:59:37;-0.30;99.90
22678;DHT22;26259;50.214;18.620;2023-04-03T05:02:03;-0.30;99.90
22678;DHT22;26259;50.214;18.620;2023-04-03T05:04:28;-0.40;99.90
22678;DHT22;26259;50.214;18.620;2023-04-03T05:06:54;-0.30;99.90
22678;DHT22;26259;50.214;18.620;2023-04-03T05:09:19;-0.30;99.90
22678;DHT22;26259;50.214;18.620;2023-04-03T05:11:46;-0.30;99.90
22678;DHT22;26259;50.214;18.620;2023-04-03T05:14:11;-0.30;99.90
22678;DHT22;26259;50.214;18.620;2023-04-03T05:16:37;-0.30;99.90
22678;DHT22;26259;50.214;18.620;2023-04-03T05:19:03;-0.40;99.90
22678;DHT22;26259;50.214;18.620;2023-04-03T05:21:28;-0.40;99.90
22678;DHT22;26259;50.214;18.620;2023-04-03T05:23:58;-0.40;99.90
22678;DHT22;26259;50.214;18.620;2023-04-03T05:26:24;-0.40;99.90
22678;DHT22;26259;50.214;18.620;2023-04-03T05:28:51;-0.40;99.90
22678;DHT22;26259;50.214;18.620;2023-04-03T05:31:16;-0.40;99.90
22678;DHT22;26259;50.214;18.620;2023-04-03T05:33:42;-0.40;99.90
22678;DHT22;26259;50.214;18.620;2023-04-03T05:36:08;-0.40;99.90
22678;DHT22;26259;50.214;18.620;2023-04-03T05:38:33;-0.30;99.90
22678;DHT22;26259;50.214;18.620;2023-04-03T05:40:59;-0.30;99.90
22678;DHT22;26259;50.214;18.620;2023-04-03T05:43:25;-0.20;99.90
22678;DHT22;26259;50.214;18.620;2023-04-03T05:45:51;-0.20;99.90
22678;DHT22;26259;50.214;18.620;2023-04-03T05:48:17;-0.10;99.90
22678;DHT22;26259;50.214;18.620;2023-04-03T05:50:43;-0.10;99.90
22678;DHT22;26259;50.214;18.620;2023-04-03T05:53:35;-0.10;99.90
22678;DHT22;26259;50.214;18.620;2023-04-03T05:56:03;-0.10;99.90
22678;DHT22;26259;50.214;18.620;2023-04-03T05:58:29;-0.20;99.90
22678;DHT22;26259;50.214;18.620;2023-04-03T06:00:54;-0.20;99.90
22678;DHT22;26259;50.214;18.620;2023-04-03T06:03:20;-0.20;99.90
22678;DHT22;26259;50.214;18.620;2023-04-03T06:05:46;-0.10;99.90
22678;DHT22;26259;50.214;18.620;2023-04-03T06:08:11;-0.10;99.90
22678;DHT22;26259;50.214;18.620;2023-04-03T06:10:38;0.00;99.90
22678;DHT22;26259;50.214;18.620;2023-04-03T06:13:04;0.10;99.90
22678;DHT22;26259;50.214;18.620;2023-04-03T06:15:29;0.20;99.90
22678;DHT22;26259;50.214;18.620;2023-04-03T06:17:55;0.30;99.90
22678;DHT22;26259;50.214;18.620;2023-04-03T06:20:21;0.40;99.90
22678;DHT22;26259;50.214;18.620;2023-04-03T06:22:47;0.50;99.90
22678;DHT22;26259;50.214;18.620;2023-04-03T06:25:13;0.50;99.90
22678;DHT22;26259;50.214;18.620;2023-04-03T06:27:39;0.50;99.90
22678;DHT22;26259;50.214;18.620;2023-04-03T06:30:06;0.50;99.90
22678;DHT22;26259;50.214;18.620;2023-04-03T06:32:32;0.50;99.90
22678;DHT22;26259;50.214;18.620;2023-04-03T06:34:57;0.50;99.90
22678;DHT22;26259;50.214;18.620;2023-04-03T06:37:24;0.50;99.90
22678;DHT22;26259;50.214;18.620;2023-04-03T06:39:52;0.50;99.90
22678;DHT22;26259;50.214;18.620;2023-04-03T06:42:17;0.50;99.90
22678;DHT22;26259;50.214;18.620;2023-04-03T06:44:43;0.60;99.90
22678;DHT22;26259;50.214;18.620;2023-04-03T06:47:13;0.60;99.90
22678;DHT22;26259;50.214;18.620;2023-04-03T06:49:40;0.70;99.90
22678;DHT22;26259;50.214;18.620;2023-04-03T06:52:06;0.60;99.90
22678;DHT22;26259;50.214;18.620;2023-04-03T06:54:32;0.60;99.90
22678;DHT22;26259;50.214;18.620;2023-04-03T06:56:58;0.60;99.90
22678;DHT22;26259;50.214;18.620;2023-04-03T06:59:24;0.70;99.90
22678;DHT22;26259;50.214;18.620;2023-04-03T07:01:50;0.80;99.90
22678;DHT22;26259;50.214;18.620;2023-04-03T07:04:16;0.90;99.90
22678;DHT22;26259;50.214;18.620;2023-04-03T07:06:42;1.10;99.90
22678;DHT22;26259;50.214;18.620;2023-04-03T07:09:09;1.20;99.90
22678;DHT22;26259;50.214;18.620;2023-04-03T07:11:35;1.20;99.90
22678;DHT22;26259;50.214;18.620;2023-04-03T07:14:02;1.30;99.90
22678;DHT22;26259;50.214;18.620;2023-04-03T07:16:28;1.40;99.90
22678;DHT22;26259;50.214;18.620;2023-04-03T07:18:56;1.60;99.90
22678;DHT22;26259;50.214;18.620;2023-04-03T07:21:22;1.70;99.90
22678;DHT22;26259;50.214;18.620;2023-04-03T07:23:48;1.80;99.90
22678;DHT22;26259;50.214;18.620;2023-04-03T07:26:14;2.00;99.90
22678;DHT22;26259;50.214;18.620;2023-04-03T07:28:40;2.10;99.90
22678;DHT22;26259;50.214;18.620;2023-04-03T07:31:08;2.30;99.90
22678;DHT22;26259;50.214;18.620;2023-04-03T07:33:36;2.40;99.90
22678;DHT22;26259;50.214;18.620;2023-04-03T07:36:03;2.70;99.90
22678;DHT22;26259;50.214;18.620;2023-04-03T07:38:28;2.70;99.90
22678;DHT22;26259;50.214;18.620;2023-04-03T07:40:54;2.90;99.90
22678;DHT22;26259;50.214;18.620;2023-04-03T07:43:21;3.20;99.90
22678;DHT22;26259;50.214;18.620;2023-04-03T07:45:47;3.40;99.90
22678;DHT22;26259;50.214;18.620;2023-04-03T07:48:24;3.30;99.90
22678;DHT22;26259;50.214;18.620;2023-04-03T07:50:50;3.30;99.90
22678;DHT22;26259;50.214;18.620;2023-04-03T07:53:16;3.00;99.90
22678;DHT22;26259;50.214;18.620;2023-04-03T07:55:41;2.90;99.90
22678;DHT22;26259;50.214;18.620;2023-04-03T07:58:11;2.70;99.90
22678;DHT22;26259;50.214;18.620;2023-04-03T08:00:38;2.60;99.90
22678;DHT22;26259;50.214;18.620;2023-04-03T08:03:05;2.80;99.90
22678;DHT22;26259;50.214;18.620;2023-04-03T08:05:31;2.80;99.90
22678;DHT22;26259;50.214;18.620;2023-04-03T08:07:57;2.90;99.90
22678;DHT22;26259;50.214;18.620;2023-04-03T08:10:22;2.80;99.90
22678;DHT22;26259;50.214;18.620;2023-04-03T08:12:48;2.80;99.90
22678;DHT22;26259;50.214;18.620;2023-04-03T08:15:14;2.80;99.90
22678;DHT22;26259;50.214;18.620;2023-04-03T08:17:40;2.70;99.90
22678;DHT22;26259;50.214;18.620;2023-04-03T08:20:07;2.70;99.90
22678;DHT22;26259;50.214;18.620;2023-04-03T08:22:33;2.60;99.90
22678;DHT22;26259;50.214;18.620;2023-04-03T08:24:59;2.70;99.90
22678;DHT22;26259;50.214;18.620;2023-04-03T08:27:26;2.70;99.90
22678;DHT22;26259;50.214;18.620;2023-04-03T08:29:52;2.80;99.90
22678;DHT22;26259;50.214;18.620;2023-04-03T08:32:18;3.10;99.90
22678;DHT22;26259;50.214;18.620;2023-04-03T08:34:44;3.30;99.90
22678;DHT22;26259;50.214;18.620;2023-04-03T08:37:10;3.60;99.90
22678;DHT22;26259;50.214;18.620;2023-04-03T08:39:36;3.90;99.90
22678;DHT22;26259;50.214;18.620;2023-04-03T08:42:10;4.10;99.90
22678;DHT22;26259;50.214;18.620;2023-04-03T08:50:50;4.70;99.90
22678;DHT22;26259;50.214;18.620;2023-04-03T08:53:26;4.50;99.10
22678;DHT22;26259;50.214;18.620;2023-04-03T08:55:54;4.20;94.70
22678;DHT22;26259;50.214;18.620;2023-04-03T08:58:33;4.00;98.00
22678;DHT22;26259;50.214;18.620;2023-04-03T09:01:19;3.90;96.20
22678;DHT22;26259;50.214;18.620;2023-04-03T09:03:45;3.80;92.90
22678;DHT22;26259;50.214;18.620;2023-04-03T09:06:15;3.70;92.00
22678;DHT22;26259;50.214;18.620;2023-04-03T09:12:06;3.80;80.90
22678;DHT22;26259;50.214;18.620;2023-04-03T09:14:43;4.00;92.40
22678;DHT22;26259;50.214;18.620;2023-04-03T09:22:43;3.90;72.70
22678;DHT22;26259;50.214;18.620;2023-04-03T09:25:27;3.90;75.70
22678;DHT22;26259;50.214;18.620;2023-04-03T09:27:55;4.00;81.90
22678;DHT22;26259;50.214;18.620;2023-04-03T09:30:24;3.90;65.20
22678;DHT22;26259;50.214;18.620;2023-04-03T09:32:52;3.70;68.20
22678;DHT22;26259;50.214;18.620;2023-04-03T09:37:46;4.10;92.60
22678;DHT22;26259;50.214;18.620;2023-04-03T09:40:27;4.40;85.40
22678;DHT22;26259;50.214;18.620;2023-04-03T09:42:59;4.60;90.90
22678;DHT22;26259;50.214;18.620;2023-04-03T09:53:36;3.60;63.30
22678;DHT22;26259;50.214;18.620;2023-04-03T09:58:46;3.80;88.90
22678;DHT22;26259;50.214;18.620;2023-04-03T10:04:14;3.90;81.60
22678;DHT22;26259;50.214;18.620;2023-04-03T10:06:46;4.10;59.50
22678;DHT22;26259;50.214;18.620;2023-04-03T10:09:25;4.20;67.70
22678;DHT22;26259;50.214;18.620;2023-04-03T10:12:04;4.50;59.70
22678;DHT22;26259;50.214;18.620;2023-04-03T10:14:36;4.60;57.70
22678;DHT22;26259;50.214;18.620;2023-04-03T10:19:35;4.30;49.00
22678;DHT22;26259;50.214;18.620;2023-04-03T10:25:15;4.10;57.20
22678;DHT22;26259;50.214;18.620;2023-04-03T10:57:54;4.80;60.30
22678;DHT22;26259;50.214;18.620;2023-04-03T11:00:38;4.60;54.00
22678;DHT22;26259;50.214;18.620;2023-04-03T11:03:22;4.40;63.80
22678;DHT22;26259;50.214;18.620;2023-04-03T11:05:53;4.60;73.70
22678;DHT22;26259;50.214;18.620;2023-04-03T11:11:37;5.20;56.00
22678;DHT22;26259;50.214;18.620;2023-04-03T11:16:48;4.70;43.60
22678;DHT22;26259;50.214;18.620;2023-04-03T11:19:20;4.60;46.00
22678;DHT22;26259;50.214;18.620;2023-04-03T11:24:36;5.00;50.90
22678;DHT22;26259;50.214;18.620;2023-04-03T11:27:04;5.30;46.40
22678;DHT22;26259;50.214;18.620;2023-04-03T11:29:38;5.60;56.30
22678;DHT22;26259;50.214;18.620;2023-04-03T11:35:19;4.90;45.10
22678;DHT22;26259;50.214;18.620;2023-04-03T11:37:49;4.70;54.00
22678;DHT22;26259;50.214;18.620;2023-04-03T11:42:47;5.20;63.00
22678;DHT22;26259;50.214;18.620;2023-04-03T11:48:03;5.40;55.20
22678;DHT22;26259;50.214;18.620;2023-04-03T12:05:54;5.20;39.90
22678;DHT22;26259;50.214;18.620;2023-04-03T12:08:29;5.10;41.80
22678;DHT22;26259;50.214;18.620;2023-04-03T12:27:02;5.20;45.10
22678;DHT22;26259;50.214;18.620;2023-04-03T12:29:52;5.20;47.50
22678;DHT22;26259;50.214;18.620;2023-04-03T12:46:17;5.80;47.10
22678;DHT22;26259;50.214;18.620;2023-04-03T12:48:50;5.70;46.90
22678;DHT22;26259;50.214;18.620;2023-04-03T12:51:43;5.40;38.40
22678;DHT22;26259;50.214;18.620;2023-04-03T12:54:16;5.30;44.70
22678;DHT22;26259;50.214;18.620;2023-04-03T12:56:42;5.40;46.90
22678;DHT22;26259;50.214;18.620;2023-04-03T12:59:25;5.60;39.20
22678;DHT22;26259;50.214;18.620;2023-04-03T13:01:56;5.80;35.70
22678;DHT22;26259;50.214;18.620;2023-04-03T13:04:22;5.90;40.90
22678;DHT22;26259;50.214;18.620;2023-04-03T13:06:48;6.20;40.00
22678;DHT22;26259;50.214;18.620;2023-04-03T13:09:32;6.00;37.90
22678;DHT22;26259;50.214;18.620;2023-04-03T13:12:02;5.50;39.90
22678;DHT22;26259;50.214;18.620;2023-04-03T13:14:29;5.30;40.90
22678;DHT22;26259;50.214;18.620;2023-04-03T13:17:03;5.30;36.80
22678;DHT22;26259;50.214;18.620;2023-04-03T13:19:30;5.40;33.80
22678;DHT22;26259;50.214;18.620;2023-04-03T13:22:26;5.60;37.50
22678;DHT22;26259;50.214;18.620;2023-04-03T13:24:54;5.90;39.30
22678;DHT22;26259;50.214;18.620;2023-04-03T13:27:20;6.30;37.20
22678;DHT22;26259;50.214;18.620;2023-04-03T13:29:51;6.30;36.10
22678;DHT22;26259;50.214;18.620;2023-04-03T13:32:21;6.10;36.20
22678;DHT22;26259;50.214;18.620;2023-04-03T13:34:47;5.90;39.10
22678;DHT22;26259;50.214;18.620;2023-04-03T13:37:28;5.80;41.60
22678;DHT22;26259;50.214;18.620;2023-04-03T13:40:20;5.70;35.60
22678;DHT22;26259;50.214;18.620;2023-04-03T13:42:46;5.70;35.50
22678;DHT22;26259;50.214;18.620;2023-04-03T13:45:28;5.80;34.90
22678;DHT22;26259;50.214;18.620;2023-04-03T13:48:09;6.00;34.60
22678;DHT22;26259;50.214;18.620;2023-04-03T13:50:57;6.10;36.20
22678;DHT22;26259;50.214;18.620;2023-04-03T13:53:24;6.10;35.30
22678;DHT22;26259;50.214;18.620;2023-04-03T13:58:24;5.70;37.70
22678;DHT22;26259;50.214;18.620;2023-04-03T14:06:30;5.10;36.10
22678;DHT22;26259;50.214;18.620;2023-04-03T14:08:56;5.20;37.10
22678;DHT22;26259;50.214;18.620;2023-04-03T14:11:26;5.40;36.30
22678;DHT22;26259;50.214;18.620;2023-04-03T14:13:52;5.70;39.40
22678;DHT22;26259;50.214;18.620;2023-04-03T14:16:21;5.80;30.00
22678;DHT22;26259;50.214;18.620;2023-04-03T14:18:50;5.60;31.10
22678;DHT22;26259;50.214;18.620;2023-04-03T14:21:18;5.60;34.60
22678;DHT22;26259;50.214;18.620;2023-04-03T14:23:44;5.50;34.50
22678;DHT22;26259;50.214;18.620;2023-04-03T14:26:16;5.60;38.00
22678;DHT22;26259;50.214;18.620;2023-04-03T14:28:47;5.40;34.30
22678;DHT22;26259;50.214;18.620;2023-04-03T14:31:14;5.30;29.60
22678;DHT22;26259;50.214;18.620;2023-04-03T14:33:40;5.20;32.40
22678;DHT22;26259;50.214;18.620;2023-04-03T14:36:17;5.20;32.80
22678;DHT22;26259;50.214;18.620;2023-04-03T14:38:44;5.40;35.70
22678;DHT22;26259;50.214;18.620;2023-04-03T14:41:14;5.60;39.50
22678;DHT22;26259;50.214;18.620;2023-04-03T14:43:41;5.70;36.30
22678;DHT22;26259;50.214;18.620;2023-04-03T14:46:36;5.70;32.40
22678;DHT22;26259;50.214;18.620;2023-04-03T14:49:04;5.50;29.90
22678;DHT22;26259;50.214;18.620;2023-04-03T14:51:33;5.40;32.60
22678;DHT22;26259;50.214;18.620;2023-04-03T14:53:59;5.20;36.30
22678;DHT22;26259;50.214;18.620;2023-04-03T14:56:28;5.10;36.00
22678;DHT22;26259;50.214;18.620;2023-04-03T14:59:00;5.10;39.30
22678;DHT22;26259;50.214;18.620;2023-04-03T15:01:27;5.00;38.20
22678;DHT22;26259;50.214;18.620;2023-04-03T15:03:53;4.90;41.20
22678;DHT22;26259;50.214;18.620;2023-04-03T15:06:19;4.80;40.50
22678;DHT22;26259;50.214;18.620;2023-04-03T15:08:47;4.70;42.50
22678;DHT22;26259;50.214;18.620;2023-04-03T15:11:13;4.60;45.20
22678;DHT22;26259;50.214;18.620;2023-04-03T15:13:40;4.60;48.70
22678;DHT22;26259;50.214;18.620;2023-04-03T15:16:14;4.60;46.40
22678;DHT22;26259;50.214;18.620;2023-04-03T15:18:40;4.60;45.50
22678;DHT22;26259;50.214;18.620;2023-04-03T15:21:06;4.60;43.50
22678;DHT22;26259;50.214;18.620;2023-04-03T15:23:32;4.60;38.60
22678;DHT22;26259;50.214;18.620;2023-04-03T15:39:25;4.40;44.00
22678;DHT22;26259;50.214;18.620;2023-04-03T15:41:51;4.40;46.90
22678;DHT22;26259;50.214;18.620;2023-04-03T15:44:17;4.30;49.40
22678;DHT22;26259;50.214;18.620;2023-04-03T15:46:45;4.30;49.10
22678;DHT22;26259;50.214;18.620;2023-04-03T15:49:12;4.30;55.20
22678;DHT22;26259;50.214;18.620;2023-04-03T15:51:38;4.20;54.30
22678;DHT22;26259;50.214;18.620;2023-04-03T15:54:04;4.20;54.10
22678;DHT22;26259;50.214;18.620;2023-04-03T15:56:30;4.20;53.20
22678;DHT22;26259;50.214;18.620;2023-04-03T15:58:56;4.20;54.20
22678;DHT22;26259;50.214;18.620;2023-04-03T16:01:21;4.10;52.00
22678;DHT22;26259;50.214;18.620;2023-04-03T16:03:50;4.10;56.10
22678;DHT22;26259;50.214;18.620;2023-04-03T16:06:17;4.10;59.10
22678;DHT22;26259;50.214;18.620;2023-04-03T16:08:44;4.00;56.70
22678;DHT22;26259;50.214;18.620;2023-04-03T16:11:09;3.90;54.70
22678;DHT22;26259;50.214;18.620;2023-04-03T16:13:35;3.90;49.60
22678;DHT22;26259;50.214;18.620;2023-04-03T16:16:01;3.80;53.10
22678;DHT22;26259;50.214;18.620;2023-04-03T16:18:28;3.90;54.60
22678;DHT22;26259;50.214;18.620;2023-04-03T16:20:54;3.90;56.70
22678;DHT22;26259;50.214;18.620;2023-04-03T16:23:20;3.90;62.30
22678;DHT22;26259;50.214;18.620;2023-04-03T16:25:46;3.80;60.90
22678;DHT22;26259;50.214;18.620;2023-04-03T16:28:16;3.80;65.30
22678;DHT22;26259;50.214;18.620;2023-04-03T16:30:44;3.80;63.10
22678;DHT22;26259;50.214;18.620;2023-04-03T16:33:11;3.90;68.80
22678;DHT22;26259;50.214;18.620;2023-04-03T16:35:37;3.90;67.30
22678;DHT22;26259;50.214;18.620;2023-04-03T16:38:03;3.80;61.30
22678;DHT22;26259;50.214;18.620;2023-04-03T16:40:29;3.70;64.90
22678;DHT22;26259;50.214;18.620;2023-04-03T16:42:54;3.70;70.10
22678;DHT22;26259;50.214;18.620;2023-04-03T16:45:20;3.60;67.80
22678;DHT22;26259;50.214;18.620;2023-04-03T16:47:46;3.60;61.10
22678;DHT22;26259;50.214;18.620;2023-04-03T16:50:11;3.60;64.90
22678;DHT22;26259;50.214;18.620;2023-04-03T16:52:37;3.50;65.90
22678;DHT22;26259;50.214;18.620;2023-04-03T16:55:03;3.50;67.80
22678;DHT22;26259;50.214;18.620;2023-04-03T16:57:28;3.50;69.60
22678;DHT22;26259;50.214;18.620;2023-04-03T16:59:54;3.40;74.60
22678;DHT22;26259;50.214;18.620;2023-04-03T17:02:21;3.40;76.50
22678;DHT22;26259;50.214;18.620;2023-04-03T17:04:50;3.40;86.00
22678;DHT22;26259;50.214;18.620;2023-04-03T17:07:17;3.30;87.20
22678;DHT22;26259;50.214;18.620;2023-04-03T17:09:42;3.30;88.50
22678;DHT22;26259;50.214;18.620;2023-04-03T17:12:08;3.20;89.30
22678;DHT22;26259;50.214;18.620;2023-04-03T17:14:33;3.20;93.60
22678;DHT22;26259;50.214;18.620;2023-04-03T17:16:59;3.20;93.70
22678;DHT22;26259;50.214;18.620;2023-04-03T17:19:25;3.10;88.60
22678;DHT22;26259;50.214;18.620;2023-04-03T17:21:52;3.10;85.60
22678;DHT22;26259;50.214;18.620;2023-04-03T17:24:17;3.10;88.40
22678;DHT22;26259;50.214;18.620;2023-04-03T17:26:43;3.10;88.00
22678;DHT22;26259;50.214;18.620;2023-04-03T17:29:09;3.10;92.60
22678;DHT22;26259;50.214;18.620;2023-04-03T17:31:35;3.10;91.10
22678;DHT22;26259;50.214;18.620;2023-04-03T17:34:00;3.00;95.20
22678;DHT22;26259;50.214;18.620;2023-04-03T17:36:30;3.00;96.00
22678;DHT22;26259;50.214;18.620;2023-04-03T17:38:56;3.00;98.00
22678;DHT22;26259;50.214;18.620;2023-04-03T17:41:22;2.90;99.90
22678;DHT22;26259;50.214;18.620;2023-04-03T17:43:48;2.90;99.90
22678;DHT22;26259;50.214;18.620;2023-04-03T17:46:14;2.90;94.60
22678;DHT22;26259;50.214;18.620;2023-04-03T17:48:42;2.90;94.80
22678;DHT22;26259;50.214;18.620;2023-04-03T17:51:13;2.90;95.40
22678;DHT22;26259;50.214;18.620;2023-04-03T17:53:40;2.80;93.50
22678;DHT22;26259;50.214;18.620;2023-04-03T17:56:10;2.80;96.50
22678;DHT22;26259;50.214;18.620;2023-04-03T17:58:37;2.80;93.40
22678;DHT22;26259;50.214;18.620;2023-04-03T18:01:17;2.80;92.60
22678;DHT22;26259;50.214;18.620;2023-04-03T18:03:43;2.80;96.40
22678;DHT22;26259;50.214;18.620;2023-04-03T18:06:13;2.80;97.00
22678;DHT22;26259;50.214;18.620;2023-04-03T18:08:53;2.70;97.80
22678;DHT22;26259;50.214;18.620;2023-04-03T18:11:22;2.70;97.70
22678;DHT22;26259;50.214;18.620;2023-04-03T18:13:48;2.70;98.60